Terminal Aerodrome Forecast
Issued by NWS

Home | Current Version | Previous Version | Graphics & Text | Print | Product List | Glossary On
Versions: 1 2 3 4 5 6 7 8 9 10 11 12 13 14 15 16 17
000
FTUS43 KGRB 272337
TAFRHI
TAF
KRHI 272337Z 2800/2824 30007KT P6SM VCSH SCT008 OVC015
      TEMPO 2800/2802 5SM -SHRA BR BKN008
     FM280200 32007KT 5SM BR VCSH OVC007
     FM280800 36007KT 3SM -DZ BR OVC003
      TEMPO 2812/2814 OVC008
     FM281400 03008KT P6SM SCT008 OVC015
     FM281700 03009KT P6SM BKN025=

USA.gov is the U.S. government's official web portal to all federal, state and local government web resources and services.